sensor_id;sensor_type;location;lat;lon;timestamp;pressure;altitude;pressure_sealevel;temperature;humidity
19884;BME280;10104;50.732;10.174;2023-02-12T00:01:57;99847.78;;;7.01;100.00
19884;BME280;10104;50.732;10.174;2023-02-12T00:04:18;99851.41;;;7.11;100.00
19884;BME280;10104;50.732;10.174;2023-02-12T00:06:39;99848.66;;;7.24;100.00
19884;BME280;10104;50.732;10.174;2023-02-12T00:09:01;99861.72;;;7.37;100.00
19884;BME280;10104;50.732;10.174;2023-02-12T00:11:25;99854.19;;;7.43;100.00
19884;BME280;10104;50.732;10.174;2023-02-12T00:13:47;99861.84;;;7.35;100.00
19884;BME280;10104;50.732;10.174;2023-02-12T00:16:12;99859.09;;;7.48;100.00
19884;BME280;10104;50.732;10.174;2023-02-12T00:18:34;99864.59;;;7.56;100.00
19884;BME280;10104;50.732;10.174;2023-02-12T00:20:58;99863.53;;;7.58;100.00
19884;BME280;10104;50.732;10.174;2023-02-12T00:23:19;99866.75;;;7.62;100.00
19884;BME280;10104;50.732;10.174;2023-02-12T00:25:41;99871.31;;;7.71;99.79
19884;BME280;10104;50.732;10.174;2023-02-12T00:28:02;99869.50;;;7.71;99.55
19884;BME280;10104;50.732;10.174;2023-02-12T00:30:24;99870.22;;;7.62;99.81
19884;BME280;10104;50.732;10.174;2023-02-12T00:32:46;99866.28;;;7.57;100.00
19884;BME280;10104;50.732;10.174;2023-02-12T00:35:07;99862.22;;;7.53;99.97
19884;BME280;10104;50.732;10.174;2023-02-12T00:37:29;99865.66;;;7.42;100.00
19884;BME280;10104;50.732;10.174;2023-02-12T00:39:50;99868.81;;;7.58;99.68
19884;BME280;10104;50.732;10.174;2023-02-12T00:42:11;99866.53;;;7.65;99.20
19884;BME280;10104;50.732;10.174;2023-02-12T00:44:33;99868.53;;;7.72;98.85
19884;BME280;10104;50.732;10.174;2023-02-12T00:46:55;99869.16;;;7.65;98.74
19884;BME280;10104;50.732;10.174;2023-02-12T00:49:17;99866.63;;;7.75;98.49
19884;BME280;10104;50.732;10.174;2023-02-12T00:51:40;99877.56;;;7.70;98.42
19884;BME280;10104;50.732;10.174;2023-02-12T00:54:02;99875.03;;;7.68;98.53
19884;BME280;10104;50.732;10.174;2023-02-12T00:56:23;99868.91;;;7.68;98.44
19884;BME280;10104;50.732;10.174;2023-02-12T00:58:45;99870.34;;;7.72;98.13
19884;BME280;10104;50.732;10.174;2023-02-12T01:01:06;99864.56;;;7.78;98.12
19884;BME280;10104;50.732;10.174;2023-02-12T01:03:28;99865.56;;;7.77;97.95
19884;BME280;10104;50.732;10.174;2023-02-12T01:05:49;99862.78;;;7.79;97.92
19884;BME280;10104;50.732;10.174;2023-02-12T01:08:12;99862.28;;;7.85;97.75
19884;BME280;10104;50.732;10.174;2023-02-12T01:10:34;99862.19;;;7.86;97.50
19884;BME280;10104;50.732;10.174;2023-02-12T01:12:55;99863.97;;;7.86;97.56
19884;BME280;10104;50.732;10.174;2023-02-12T01:15:17;99860.84;;;7.92;97.30
19884;BME280;10104;50.732;10.174;2023-02-12T01:17:39;99858.22;;;7.92;97.11
19884;BME280;10104;50.732;10.174;2023-02-12T01:20:00;99855.00;;;7.66;98.05
19884;BME280;10104;50.732;10.174;2023-02-12T01:22:22;99846.03;;;7.68;97.90
19884;BME280;10104;50.732;10.174;2023-02-12T01:24:43;99845.66;;;7.73;97.77
19884;BME280;10104;50.732;10.174;2023-02-12T01:27:05;99851.19;;;7.70;97.57
19884;BME280;10104;50.732;10.174;2023-02-12T01:29:26;99849.25;;;7.72;97.64
19884;BME280;10104;50.732;10.174;2023-02-12T01:31:48;99852.84;;;7.82;97.31
19884;BME280;10104;50.732;10.174;2023-02-12T01:34:10;99851.50;;;7.88;97.04
19884;BME280;10104;50.732;10.174;2023-02-12T01:36:32;99857.84;;;7.85;96.75
19884;BME280;10104;50.732;10.174;2023-02-12T01:38:54;99850.09;;;7.84;97.06
19884;BME280;10104;50.732;10.174;2023-02-12T01:41:21;99850.44;;;7.68;97.64
19884;BME280;10104;50.732;10.174;2023-02-12T01:43:44;99850.81;;;7.63;97.30
19884;BME280;10104;50.732;10.174;2023-02-12T01:46:08;99855.47;;;7.60;97.48
19884;BME280;10104;50.732;10.174;2023-02-12T01:48:34;99844.59;;;7.64;97.81
19884;BME280;10104;50.732;10.174;2023-02-12T01:50:58;99851.31;;;7.57;98.05
19884;BME280;10104;50.732;10.174;2023-02-12T01:53:24;99856.22;;;7.62;97.60
19884;BME280;10104;50.732;10.174;2023-02-12T01:55:50;99861.94;;;7.67;97.71
19884;BME280;10104;50.732;10.174;2023-02-12T01:58:12;99852.59;;;7.74;97.08
19884;BME280;10104;50.732;10.174;2023-02-12T02:00:35;99857.16;;;7.72;97.22
19884;BME280;10104;50.732;10.174;2023-02-12T02:02:59;99858.63;;;7.65;97.78
19884;BME280;10104;50.732;10.174;2023-02-12T02:05:30;99855.97;;;7.76;97.28
19884;BME280;10104;50.732;10.174;2023-02-12T02:07:53;99850.31;;;7.81;96.83
19884;BME280;10104;50.732;10.174;2023-02-12T02:10:15;99850.19;;;7.82;96.75
19884;BME280;10104;50.732;10.174;2023-02-12T02:12:37;99846.97;;;7.79;96.74
19884;BME280;10104;50.732;10.174;2023-02-12T02:15:18;99849.25;;;7.83;96.51
19884;BME280;10104;50.732;10.174;2023-02-12T02:20:16;99849.72;;;7.88;96.21
19884;BME280;10104;50.732;10.174;2023-02-12T02:33:23;99830.28;;;7.78;97.18
19884;BME280;10104;50.732;10.174;2023-02-12T02:36:22;99833.66;;;7.80;97.02
19884;BME280;10104;50.732;10.174;2023-02-12T02:38:52;99835.81;;;7.86;96.84
19884;BME280;10104;50.732;10.174;2023-02-12T02:41:37;99830.56;;;7.75;96.65
19884;BME280;10104;50.732;10.174;2023-02-12T02:44:08;99835.69;;;7.65;97.08
19884;BME280;10104;50.732;10.174;2023-02-12T02:46:41;99826.50;;;7.71;96.89
19884;BME280;10104;50.732;10.174;2023-02-12T02:49:09;99825.66;;;7.70;96.50
19884;BME280;10104;50.732;10.174;2023-02-12T02:51:39;99832.47;;;7.73;96.58
19884;BME280;10104;50.732;10.174;2023-02-12T02:54:47;99831.63;;;7.72;96.77
19884;BME280;10104;50.732;10.174;2023-02-12T02:56:53;99825.28;;;7.75;96.57
19884;BME280;10104;50.732;10.174;2023-02-12T02:59:23;99829.47;;;7.78;95.96
19884;BME280;10104;50.732;10.174;2023-02-12T03:04:22;99830.28;;;7.78;96.08
19884;BME280;10104;50.732;10.174;2023-02-12T03:06:55;99832.44;;;7.84;95.82
19884;BME280;10104;50.732;10.174;2023-02-12T03:09:30;99837.47;;;7.87;95.65
19884;BME280;10104;50.732;10.174;2023-02-12T03:11:57;99833.16;;;7.86;95.77
19884;BME280;10104;50.732;10.174;2023-02-12T03:14:37;99833.88;;;7.88;95.53
19884;BME280;10104;50.732;10.174;2023-02-12T03:17:04;99831.72;;;7.93;95.36
19884;BME280;10104;50.732;10.174;2023-02-12T03:19:31;99826.56;;;7.92;95.49
19884;BME280;10104;50.732;10.174;2023-02-12T03:22:01;99837.09;;;7.92;95.39
19884;BME280;10104;50.732;10.174;2023-02-12T03:24:31;99840.00;;;7.89;95.72
19884;BME280;10104;50.732;10.174;2023-02-12T03:27:06;99834.25;;;7.95;95.43
19884;BME280;10104;50.732;10.174;2023-02-12T03:29:30;99834.25;;;7.95;95.46
19884;BME280;10104;50.732;10.174;2023-02-12T03:36:48;99824.44;;;7.75;95.82
19884;BME280;10104;50.732;10.174;2023-02-12T03:39:22;99818.59;;;7.71;96.03
19884;BME280;10104;50.732;10.174;2023-02-12T03:41:50;99825.63;;;7.59;96.51
19884;BME280;10104;50.732;10.174;2023-02-12T03:47:19;99831.53;;;7.52;96.89
19884;BME280;10104;50.732;10.174;2023-02-12T03:49:57;99829.88;;;7.51;96.60
19884;BME280;10104;50.732;10.174;2023-02-12T03:52:21;99829.97;;;7.49;96.63
19884;BME280;10104;50.732;10.174;2023-02-12T03:54:43;99828.41;;;7.58;96.33
19884;BME280;10104;50.732;10.174;2023-02-12T03:57:08;99824.56;;;7.62;96.09
19884;BME280;10104;50.732;10.174;2023-02-12T03:59:31;99830.31;;;7.56;96.15
19884;BME280;10104;50.732;10.174;2023-02-12T04:01:57;99836.19;;;7.48;96.48
19884;BME280;10104;50.732;10.174;2023-02-12T04:04:20;99833.72;;;7.47;96.09
19884;BME280;10104;50.732;10.174;2023-02-12T04:06:42;99840.38;;;7.62;95.62
19884;BME280;10104;50.732;10.174;2023-02-12T04:09:06;99841.59;;;7.58;95.61
19884;BME280;10104;50.732;10.174;2023-02-12T04:11:53;99846.75;;;7.37;97.16
19884;BME280;10104;50.732;10.174;2023-02-12T04:14:25;99852.00;;;7.48;96.44
19884;BME280;10104;50.732;10.174;2023-02-12T04:16:53;99854.06;;;7.45;96.33
19884;BME280;10104;50.732;10.174;2023-02-12T04:19:29;99857.28;;;7.26;97.11
19884;BME280;10104;50.732;10.174;2023-02-12T04:22:14;99860.03;;;7.36;96.98
19884;BME280;10104;50.732;10.174;2023-02-12T04:24:49;99862.19;;;7.42;96.32
19884;BME280;10104;50.732;10.174;2023-02-12T04:27:21;99862.56;;;7.26;97.21
19884;BME280;10104;50.732;10.174;2023-02-12T04:29:56;99868.91;;;7.35;96.56
19884;BME280;10104;50.732;10.174;2023-02-12T04:32:43;99862.44;;;7.27;97.04
19884;BME280;10104;50.732;10.174;2023-02-12T04:37:48;99862.19;;;7.30;96.82
19884;BME280;10104;50.732;10.174;2023-02-12T04:40:14;99861.34;;;7.30;96.73
19884;BME280;10104;50.732;10.174;2023-02-12T04:42:42;99866.50;;;7.20;97.43
19884;BME280;10104;50.732;10.174;2023-02-12T04:45:04;99873.00;;;7.27;97.18
19884;BME280;10104;50.732;10.174;2023-02-12T04:47:26;99867.34;;;7.32;96.76
19884;BME280;10104;50.732;10.174;2023-02-12T04:49:47;99867.00;;;7.37;96.24
19884;BME280;10104;50.732;10.174;2023-02-12T04:52:09;99873.22;;;7.36;96.45
19884;BME280;10104;50.732;10.174;2023-02-12T04:54:30;99868.78;;;7.25;97.25
19884;BME280;10104;50.732;10.174;2023-02-12T04:56:52;99862.69;;;7.36;96.49
19884;BME280;10104;50.732;10.174;2023-02-12T04:59:14;99872.63;;;7.43;95.85
19884;BME280;10104;50.732;10.174;2023-02-12T05:01:37;99871.88;;;7.19;97.62
19884;BME280;10104;50.732;10.174;2023-02-12T05:03:58;99871.91;;;7.30;97.18
19884;BME280;10104;50.732;10.174;2023-02-12T05:06:20;99873.19;;;7.13;97.63
19884;BME280;10104;50.732;10.174;2023-02-12T05:08:41;99877.53;;;7.25;97.10
19884;BME280;10104;50.732;10.174;2023-02-12T05:11:05;99877.16;;;7.30;96.88
19884;BME280;10104;50.732;10.174;2023-02-12T05:13:27;99878.75;;;7.32;96.86
19884;BME280;10104;50.732;10.174;2023-02-12T05:15:48;99884.38;;;7.39;96.36
19884;BME280;10104;50.732;10.174;2023-02-12T05:18:10;99872.25;;;7.25;97.35
19884;BME280;10104;50.732;10.174;2023-02-12T05:20:31;99879.91;;;7.28;96.72
19884;BME280;10104;50.732;10.174;2023-02-12T05:22:53;99871.66;;;7.22;97.08
19884;BME280;10104;50.732;10.174;2023-02-12T05:25:14;99877.16;;;7.30;97.03
19884;BME280;10104;50.732;10.174;2023-02-12T05:27:36;99881.00;;;7.37;96.70
19884;BME280;10104;50.732;10.174;2023-02-12T05:29:57;99878.16;;;7.40;96.01
19884;BME280;10104;50.732;10.174;2023-02-12T05:32:18;99873.84;;;7.39;96.17
19884;BME280;10104;50.732;10.174;2023-02-12T05:34:43;99878.38;;;7.37;96.04
19884;BME280;10104;50.732;10.174;2023-02-12T05:37:05;99874.91;;;7.37;96.19
19884;BME280;10104;50.732;10.174;2023-02-12T05:39:26;99880.16;;;7.37;96.09
19884;BME280;10104;50.732;10.174;2023-02-12T05:41:48;99880.78;;;7.40;96.10
19884;BME280;10104;50.732;10.174;2023-02-12T05:44:09;99881.13;;;7.36;96.81
19884;BME280;10104;50.732;10.174;2023-02-12T05:46:35;99880.75;;;7.29;96.22
19884;BME280;10104;50.732;10.174;2023-02-12T05:48:57;99880.16;;;7.37;96.04
19884;BME280;10104;50.732;10.174;2023-02-12T05:51:21;99890.34;;;7.41;95.81
19884;BME280;10104;50.732;10.174;2023-02-12T05:53:43;99895.50;;;7.43;95.99
19884;BME280;10104;50.732;10.174;2023-02-12T05:56:15;99886.28;;;7.48;95.88
19884;BME280;10104;50.732;10.174;2023-02-12T05:58:37;99890.22;;;7.43;96.17
19884;BME280;10104;50.732;10.174;2023-02-12T06:00:59;99895.13;;;7.47;95.89
19884;BME280;10104;50.732;10.174;2023-02-12T06:03:21;99898.25;;;7.41;96.11
19884;BME280;10104;50.732;10.174;2023-02-12T06:05:42;99900.19;;;7.39;96.41
19884;BME280;10104;50.732;10.174;2023-02-12T06:08:03;99896.34;;;7.43;96.14
19884;BME280;10104;50.732;10.174;2023-02-12T06:10:25;99893.59;;;7.45;95.70
19884;BME280;10104;50.732;10.174;2023-02-12T06:12:46;99904.81;;;7.24;96.90
19884;BME280;10104;50.732;10.174;2023-02-12T06:15:08;99901.00;;;7.28;96.58
19884;BME280;10104;50.732;10.174;2023-02-12T06:17:29;99902.34;;;7.34;96.36
19884;BME280;10104;50.732;10.174;2023-02-12T06:19:51;99901.63;;;7.32;96.45
19884;BME280;10104;50.732;10.174;2023-02-12T06:22:12;99908.09;;;7.39;96.13
19884;BME280;10104;50.732;10.174;2023-02-12T06:24:34;99900.88;;;7.30;96.70
19884;BME280;10104;50.732;10.174;2023-02-12T06:26:57;99905.69;;;7.36;96.54
19884;BME280;10104;50.732;10.174;2023-02-12T06:29:20;99908.22;;;7.38;95.92
19884;BME280;10104;50.732;10.174;2023-02-12T06:31:42;99905.22;;;7.42;95.71
19884;BME280;10104;50.732;10.174;2023-02-12T06:34:06;99911.69;;;7.49;95.38
19884;BME280;10104;50.732;10.174;2023-02-12T06:36:29;99913.69;;;7.23;96.56
19884;BME280;10104;50.732;10.174;2023-02-12T06:38:50;99905.09;;;7.32;96.35
19884;BME280;10104;50.732;10.174;2023-02-12T06:41:12;99916.56;;;7.20;96.99
19884;BME280;10104;50.732;10.174;2023-02-12T06:43:34;99923.06;;;7.27;96.91
19884;BME280;10104;50.732;10.174;2023-02-12T06:45:59;99926.75;;;7.36;96.16
19884;BME280;10104;50.732;10.174;2023-02-12T06:48:21;99938.72;;;7.29;97.23
19884;BME280;10104;50.732;10.174;2023-02-12T06:50:42;99924.13;;;7.36;96.73
19884;BME280;10104;50.732;10.174;2023-02-12T06:53:04;99924.38;;;7.44;96.21
19884;BME280;10104;50.732;10.174;2023-02-12T06:55:25;99933.25;;;7.43;96.57
19884;BME280;10104;50.732;10.174;2023-02-12T06:57:47;99931.81;;;7.50;96.39
19884;BME280;10104;50.732;10.174;2023-02-12T07:00:09;99941.16;;;7.43;96.93
19884;BME280;10104;50.732;10.174;2023-02-12T07:02:31;99942.38;;;7.50;96.61
19884;BME280;10104;50.732;10.174;2023-02-12T07:04:52;99945.00;;;7.50;96.40
19884;BME280;10104;50.732;10.174;2023-02-12T07:07:14;99945.00;;;7.50;96.60
19884;BME280;10104;50.732;10.174;2023-02-12T07:09:35;99951.31;;;7.37;97.87
19884;BME280;10104;50.732;10.174;2023-02-12T07:11:57;99946.31;;;7.56;96.43
19884;BME280;10104;50.732;10.174;2023-02-12T07:14:19;99952.06;;;7.61;96.08
19884;BME280;10104;50.732;10.174;2023-02-12T07:16:41;99952.56;;;7.66;96.05
19884;BME280;10104;50.732;10.174;2023-02-12T07:19:02;99953.41;;;7.66;96.02
19884;BME280;10104;50.732;10.174;2023-02-12T07:21:24;99959.03;;;7.73;95.92
19884;BME280;10104;50.732;10.174;2023-02-12T07:23:51;99951.97;;;7.73;96.06
19884;BME280;10104;50.732;10.174;2023-02-12T07:26:13;99947.66;;;7.72;96.58
19884;BME280;10104;50.732;10.174;2023-02-12T07:28:34;99956.19;;;7.76;96.42
19884;BME280;10104;50.732;10.174;2023-02-12T07:30:56;99955.09;;;7.79;96.71
19884;BME280;10104;50.732;10.174;2023-02-12T07:33:18;99952.91;;;7.72;96.57
19884;BME280;10104;50.732;10.174;2023-02-12T07:35:39;99958.66;;;7.66;97.03
19884;BME280;10104;50.732;10.174;2023-02-12T07:38:00;99951.25;;;7.83;96.24
19884;BME280;10104;50.732;10.174;2023-02-12T07:40:22;99948.00;;;7.90;96.07
19884;BME280;10104;50.732;10.174;2023-02-12T07:42:43;99951.63;;;7.89;96.36
19884;BME280;10104;50.732;10.174;2023-02-12T07:45:05;99952.69;;;7.98;96.33
19884;BME280;10104;50.732;10.174;2023-02-12T07:47:27;99957.72;;;8.01;96.41
19884;BME280;10104;50.732;10.174;2023-02-12T07:49:49;99960.47;;;8.10;95.62
19884;BME280;10104;50.732;10.174;2023-02-12T07:52:10;99960.09;;;8.15;95.70
19884;BME280;10104;50.732;10.174;2023-02-12T07:54:33;99970.56;;;8.05;96.28
19884;BME280;10104;50.732;10.174;2023-02-12T07:56:55;99969.22;;;8.22;95.43
19884;BME280;10104;50.732;10.174;2023-02-12T07:59:17;99978.69;;;8.02;96.49
19884;BME280;10104;50.732;10.174;2023-02-12T08:01:42;99980.72;;;8.21;95.49
19884;BME280;10104;50.732;10.174;2023-02-12T08:04:06;99973.16;;;8.28;95.27
19884;BME280;10104;50.732;10.174;2023-02-12T08:06:30;99980.13;;;8.40;94.88
19884;BME280;10104;50.732;10.174;2023-02-12T08:08:54;99981.81;;;8.30;95.84
19884;BME280;10104;50.732;10.174;2023-02-12T08:11:16;99975.34;;;8.45;94.98
19884;BME280;10104;50.732;10.174;2023-02-12T08:13:39;99982.66;;;8.41;95.49
19884;BME280;10104;50.732;10.174;2023-02-12T08:16:02;99977.34;;;8.52;95.03
19884;BME280;10104;50.732;10.174;2023-02-12T08:18:24;99975.34;;;8.45;95.45
19884;BME280;10104;50.732;10.174;2023-02-12T08:20:45;99980.50;;;8.58;95.16
19884;BME280;10104;50.732;10.174;2023-02-12T08:23:07;99973.88;;;8.63;94.94
19884;BME280;10104;50.732;10.174;2023-02-12T08:25:28;99983.56;;;8.74;94.43
19884;BME280;10104;50.732;10.174;2023-02-12T08:27:49;99982.59;;;8.75;94.94
19884;BME280;10104;50.732;10.174;2023-02-12T08:30:11;99987.88;;;8.75;95.14
19884;BME280;10104;50.732;10.174;2023-02-12T08:32:35;99984.34;;;8.85;94.75
19884;BME280;10104;50.732;10.174;2023-02-12T08:34:57;99991.06;;;8.89;94.49
19884;BME280;10104;50.732;10.174;2023-02-12T08:37:18;99999.47;;;8.95;94.34
19884;BME280;10104;50.732;10.174;2023-02-12T08:39:40;99993.78;;;8.99;94.41
19884;BME280;10104;50.732;10.174;2023-02-12T08:42:01;99992.31;;;9.06;94.35
19884;BME280;10104;50.732;10.174;2023-02-12T08:44:23;99995.81;;;9.07;94.59
19884;BME280;10104;50.732;10.174;2023-02-12T08:46:47;99993.00;;;9.19;93.93
19884;BME280;10104;50.732;10.174;2023-02-12T08:49:12;99986.81;;;9.30;93.75
19884;BME280;10104;50.732;10.174;2023-02-12T08:51:35;99997.38;;;9.30;93.92
19884;BME280;10104;50.732;10.174;2023-02-12T08:54:00;99997.00;;;9.34;93.60
19884;BME280;10104;50.732;10.174;2023-02-12T08:56:22;99996.56;;;9.50;92.96
19884;BME280;10104;50.732;10.174;2023-02-12T08:58:44;99998.66;;;9.36;93.50
19884;BME280;10104;50.732;10.174;2023-02-12T09:01:15;100003.69;;;9.59;93.09
19884;BME280;10104;50.732;10.174;2023-02-12T09:03:37;100003.31;;;9.64;92.90
19884;BME280;10104;50.732;10.174;2023-02-12T09:06:02;100004.78;;;9.57;93.24
19884;BME280;10104;50.732;10.174;2023-02-12T09:08:23;100007.31;;;9.58;93.45
19884;BME280;10104;50.732;10.174;2023-02-12T09:10:45;100004.53;;;9.60;93.76
19884;BME280;10104;50.732;10.174;2023-02-12T09:13:07;100011.31;;;9.73;93.17
19884;BME280;10104;50.732;10.174;2023-02-12T09:15:29;100013.34;;;9.91;92.88
19884;BME280;10104;50.732;10.174;2023-02-12T09:17:50;100008.09;;;10.00;92.57
19884;BME280;10104;50.732;10.174;2023-02-12T09:20:12;100010.19;;;10.18;92.35
19884;BME280;10104;50.732;10.174;2023-02-12T09:22:33;100014.47;;;10.19;91.90
19884;BME280;10104;50.732;10.174;2023-02-12T09:24:58;100015.66;;;10.05;92.21
19884;BME280;10104;50.732;10.174;2023-02-12T09:27:19;100018.22;;;10.16;92.02
19884;BME280;10104;50.732;10.174;2023-02-12T09:29:41;100022.56;;;10.17;92.00
19884;BME280;10104;50.732;10.174;2023-02-12T09:32:03;100023.84;;;10.23;91.47
19884;BME280;10104;50.732;10.174;2023-02-12T09:34:26;100037.09;;;10.23;91.70
19884;BME280;10104;50.732;10.174;2023-02-12T09:36:48;100033.31;;;10.25;91.61
19884;BME280;10104;50.732;10.174;2023-02-12T09:39:09;100033.09;;;10.38;90.43
19884;BME280;10104;50.732;10.174;2023-02-12T09:44:21;100031.59;;;10.45;90.35
19884;BME280;10104;50.732;10.174;2023-02-12T09:46:53;100030.22;;;10.50;90.59
19884;BME280;10104;50.732;10.174;2023-02-12T09:51:47;100032.56;;;10.44;91.12
19884;BME280;10104;50.732;10.174;2023-02-12T09:54:17;100036.63;;;10.48;91.16
19884;BME280;10104;50.732;10.174;2023-02-12T09:56:42;100031.63;;;10.54;91.38
19884;BME280;10104;50.732;10.174;2023-02-12T09:59:06;100031.75;;;10.53;91.68
19884;BME280;10104;50.732;10.174;2023-02-12T10:01:29;100032.00;;;10.50;91.91
19884;BME280;10104;50.732;10.174;2023-02-12T10:03:51;100031.78;;;10.63;91.70
19884;BME280;10104;50.732;10.174;2023-02-12T10:06:19;100032.66;;;10.82;91.22
19884;BME280;10104;50.732;10.174;2023-02-12T10:11:22;100039.09;;;10.99;90.34
19884;BME280;10104;50.732;10.174;2023-02-12T10:14:10;100040.09;;;11.08;90.14
19884;BME280;10104;50.732;10.174;2023-02-12T10:22:23;100045.13;;;11.20;89.53
19884;BME280;10104;50.732;10.174;2023-02-12T10:27:43;100050.41;;;10.91;89.20
19884;BME280;10104;50.732;10.174;2023-02-12T10:30:20;100045.69;;;11.05;89.24
19884;BME280;10104;50.732;10.174;2023-02-12T10:32:43;100046.22;;;11.18;88.70
19884;BME280;10104;50.732;10.174;2023-02-12T10:35:14;100036.47;;;11.38;88.51
19884;BME280;10104;50.732;10.174;2023-02-12T10:37:51;100032.25;;;11.64;88.26
19884;BME280;10104;50.732;10.174;2023-02-12T10:40:22;100034.78;;;11.85;86.41
19884;BME280;10104;50.732;10.174;2023-02-12T10:42:47;100030.03;;;11.59;86.26
19884;BME280;10104;50.732;10.174;2023-02-12T10:45:14;100031.00;;;11.87;86.25
19884;BME280;10104;50.732;10.174;2023-02-12T10:47:36;100034.13;;;12.10;85.32
19884;BME280;10104;50.732;10.174;2023-02-12T10:50:00;100031.00;;;12.24;84.77
19884;BME280;10104;50.732;10.174;2023-02-12T10:52:34;100028.09;;;12.18;84.34
19884;BME280;10104;50.732;10.174;2023-02-12T10:54:59;100023.22;;;12.50;83.00
19884;BME280;10104;50.732;10.174;2023-02-12T10:57:29;100022.00;;;12.07;82.27
19884;BME280;10104;50.732;10.174;2023-02-12T10:59:54;100008.97;;;12.14;83.14
19884;BME280;10104;50.732;10.174;2023-02-12T11:02:23;100007.22;;;12.32;83.81
19884;BME280;10104;50.732;10.174;2023-02-12T11:04:45;100004.81;;;12.39;82.99
19884;BME280;10104;50.732;10.174;2023-02-12T11:07:07;100005.25;;;12.34;83.09
19884;BME280;10104;50.732;10.174;2023-02-12T11:09:34;100010.66;;;12.42;82.69
19884;BME280;10104;50.732;10.174;2023-02-12T11:11:56;100007.81;;;12.26;82.07
19884;BME280;10104;50.732;10.174;2023-02-12T11:14:19;100006.91;;;12.08;82.22
19884;BME280;10104;50.732;10.174;2023-02-12T11:16:53;100003.94;;;12.11;83.22
19884;BME280;10104;50.732;10.174;2023-02-12T11:19:24;100003.34;;;12.17;83.10
19884;BME280;10104;50.732;10.174;2023-02-12T11:21:47;99996.34;;;12.26;82.83
19884;BME280;10104;50.732;10.174;2023-02-12T11:26:46;100003.78;;;12.12;81.93
19884;BME280;10104;50.732;10.174;2023-02-12T11:29:22;100003.72;;;11.95;83.57
19884;BME280;10104;50.732;10.174;2023-02-12T11:31:59;100003.59;;;11.87;83.37
19884;BME280;10104;50.732;10.174;2023-02-12T11:34:21;100001.66;;;11.89;82.66
19884;BME280;10104;50.732;10.174;2023-02-12T11:36:48;99998.47;;;11.75;83.31
19884;BME280;10104;50.732;10.174;2023-02-12T11:41:42;99995.13;;;11.54;84.77
19884;BME280;10104;50.732;10.174;2023-02-12T11:46:34;99990.53;;;11.47;83.47
19884;BME280;10104;50.732;10.174;2023-02-12T11:48:56;99990.25;;;11.40;84.25
19884;BME280;10104;50.732;10.174;2023-02-12T11:51:21;99991.81;;;11.33;85.08
19884;BME280;10104;50.732;10.174;2023-02-12T11:53:49;99989.97;;;11.24;84.84
19884;BME280;10104;50.732;10.174;2023-02-12T11:56:13;99990.41;;;11.19;85.04
19884;BME280;10104;50.732;10.174;2023-02-12T11:58:35;99987.88;;;11.18;84.72
19884;BME280;10104;50.732;10.174;2023-02-12T12:01:21;99985.81;;;11.02;86.15
19884;BME280;10104;50.732;10.174;2023-02-12T12:03:53;99985.69;;;11.04;86.22
19884;BME280;10104;50.732;10.174;2023-02-12T12:09:06;99978.56;;;11.04;85.59
19884;BME280;10104;50.732;10.174;2023-02-12T12:14:05;99983.00;;;10.94;86.04
19884;BME280;10104;50.732;10.174;2023-02-12T12:19:36;99987.03;;;10.69;88.04
19884;BME280;10104;50.732;10.174;2023-02-12T12:22:27;99978.97;;;10.90;86.94
19884;BME280;10104;50.732;10.174;2023-02-12T12:30:32;99973.53;;;10.72;87.90
19884;BME280;10104;50.732;10.174;2023-02-12T12:32:59;99980.63;;;10.72;86.83
19884;BME280;10104;50.732;10.174;2023-02-12T12:35:40;99982.44;;;10.81;86.98
19884;BME280;10104;50.732;10.174;2023-02-12T12:38:16;99983.31;;;10.91;86.02
19884;BME280;10104;50.732;10.174;2023-02-12T12:40:49;99979.22;;;10.77;86.98
19884;BME280;10104;50.732;10.174;2023-02-12T12:46:30;99983.56;;;10.78;87.95
19884;BME280;10104;50.732;10.174;2023-02-12T12:51:53;99974.50;;;10.90;86.83
19884;BME280;10104;50.732;10.174;2023-02-12T13:05:03;99966.09;;;10.47;89.36
19884;BME280;10104;50.732;10.174;2023-02-12T13:10:19;99972.94;;;10.19;90.99
19884;BME280;10104;50.732;10.174;2023-02-12T13:15:32;99965.47;;;10.34;90.11
19884;BME280;10104;50.732;10.174;2023-02-12T13:18:14;99964.09;;;10.30;89.86
19884;BME280;10104;50.732;10.174;2023-02-12T13:20:47;99963.19;;;10.20;91.03
19884;BME280;10104;50.732;10.174;2023-02-12T13:23:15;99962.94;;;10.23;90.62
19884;BME280;10104;50.732;10.174;2023-02-12T13:28:14;99965.75;;;10.31;90.45
19884;BME280;10104;50.732;10.174;2023-02-12T13:30:44;99959.47;;;10.32;89.84
19884;BME280;10104;50.732;10.174;2023-02-12T13:33:15;99956.75;;;10.43;88.93
19884;BME280;10104;50.732;10.174;2023-02-12T13:35:42;99962.53;;;10.27;89.83
19884;BME280;10104;50.732;10.174;2023-02-12T13:38:07;99959.09;;;10.36;89.41
19884;BME280;10104;50.732;10.174;2023-02-12T13:40:33;99967.91;;;10.16;90.62
19884;BME280;10104;50.732;10.174;2023-02-12T13:46:33;99970.47;;;10.27;90.17
19884;BME280;10104;50.732;10.174;2023-02-12T13:49:07;99970.91;;;10.23;90.76
19884;BME280;10104;50.732;10.174;2023-02-12T13:54:12;99968.38;;;10.31;90.03
19884;BME280;10104;50.732;10.174;2023-02-12T13:56:44;99967.03;;;10.46;89.65
19884;BME280;10104;50.732;10.174;2023-02-12T14:02:00;99966.34;;;10.44;88.64
19884;BME280;10104;50.732;10.174;2023-02-12T14:04:31;99969.81;;;10.35;88.86
19884;BME280;10104;50.732;10.174;2023-02-12T14:07:06;99976.63;;;10.28;89.44
19884;BME280;10104;50.732;10.174;2023-02-12T14:09:40;99973.31;;;10.35;89.25
19884;BME280;10104;50.732;10.174;2023-02-12T14:12:09;99964.69;;;10.43;89.96
19884;BME280;10104;50.732;10.174;2023-02-12T14:14:35;99961.06;;;10.53;89.03
19884;BME280;10104;50.732;10.174;2023-02-12T14:19:53;99960.63;;;10.39;89.10
19884;BME280;10104;50.732;10.174;2023-02-12T14:24:50;99958.63;;;10.31;89.21
19884;BME280;10104;50.732;10.174;2023-02-12T14:27:51;99969.41;;;10.09;90.69
19884;BME280;10104;50.732;10.174;2023-02-12T14:37:47;99955.69;;;10.25;89.76